Time;durP1;ratioP1;P1;durP2;ratioP2;P2;SDS_P1;SDS_P2;PMS_P1;PMS_P2;Temp;Humidity;BMP_temperature;BMP_pressure;BME280_temperature;BME280_humidity;BME280_pressure;Samples;Min_cycle;Max_cycle;Signal;HPM_P1;HPM_P2
2023/04/04 00:01:52;;;;;;;2.67;2.10;;;3.70;66.50;;;;;;5033418;28;20433;-70
2023/04/04 00:04:18;;;;;;;3.25;2.10;;;3.70;64.30;;;;;;5025601;28;20809;-70
2023/04/04 00:06:46;;;;;;;4.10;2.30;;;3.70;64.60;;;;;;5029702;28;20424;-70
2023/04/04 00:09:13;;;;;;;3.28;1.95;;;3.70;64.60;;;;;;5050516;28;20433;-70
2023/04/04 00:11:42;;;;;;;2.30;1.50;;;3.60;65.10;;;;;;5030973;28;20427;-70
2023/04/04 00:14:09;;;;;;;4.60;1.90;;;3.60;66.10;;;;;;5030030;28;20418;-70
2023/04/04 00:16:35;;;;;;;2.78;1.92;;;3.60;66.40;;;;;;5025414;28;20430;-70
2023/04/04 00:19:02;;;;;;;3.42;1.85;;;3.60;65.30;;;;;;5032187;28;20787;-70
2023/04/04 00:21:30;;;;;;;2.90;1.70;;;3.60;67.10;;;;;;5035255;28;20415;-70
2023/04/04 00:23:57;;;;;;;3.70;1.75;;;3.60;66.80;;;;;;5028348;28;20423;-69
2023/04/04 00:26:25;;;;;;;2.53;1.73;;;3.50;66.80;;;;;;5029572;28;20920;-70
2023/04/04 00:28:53;;;;;;;3.55;2.05;;;3.50;67.50;;;;;;5029776;28;20929;-70
2023/04/04 00:31:20;;;;;;;3.85;1.60;;;3.40;67.10;;;;;;5035413;28;20442;-69
2023/04/04 00:33:47;;;;;;;3.55;1.90;;;3.40;66.90;;;;;;5038754;28;20442;-71
2023/04/04 00:36:14;;;;;;;3.35;1.80;;;3.30;67.20;;;;;;5050211;28;20427;-72
2023/04/04 00:38:40;;;;;;;2.35;1.80;;;3.30;67.20;;;;;;5040151;28;20428;-70
2023/04/04 00:41:07;;;;;;;2.70;1.55;;;3.30;66.50;;;;;;5013402;28;20501;-71
2023/04/04 00:43:35;;;;;;;3.03;1.80;;;3.30;67.70;;;;;;5026545;28;20427;-70
2023/04/04 00:46:03;;;;;;;2.20;1.70;;;3.30;68.10;;;;;;5021770;28;20431;-70
2023/04/04 00:48:30;;;;;;;3.00;2.08;;;3.30;67.10;;;;;;5028564;28;20423;-70
2023/04/04 00:50:56;;;;;;;2.20;2.00;;;3.20;69.30;;;;;;5029198;28;20441;-70
2023/04/04 00:53:23;;;;;;;2.80;2.10;;;3.20;68.10;;;;;;5036406;28;20461;-70
2023/04/04 00:55:50;;;;;;;3.67;2.10;;;3.20;67.00;;;;;;5032230;28;20449;-70
2023/04/04 00:58:18;;;;;;;2.80;2.42;;;3.10;68.30;;;;;;5030527;28;20518;-70
2023/04/04 01:00:45;;;;;;;3.17;2.25;;;3.00;68.70;;;;;;5031571;28;20501;-70
2023/04/04 01:03:13;;;;;;;4.50;2.60;;;3.00;69.30;;;;;;5021646;28;20514;-70
2023/04/04 01:05:39;;;;;;;3.90;2.03;;;2.90;70.70;;;;;;5024550;28;20440;-71
2023/04/04 01:08:06;;;;;;;3.05;2.13;;;2.90;70.30;;;;;;5046332;28;20422;-70
2023/04/04 01:10:34;;;;;;;2.40;2.20;;;2.90;70.60;;;;;;5042109;28;20510;-70
2023/04/04 01:13:00;;;;;;;4.85;2.10;;;2.90;71.10;;;;;;5028627;28;20504;-70
2023/04/04 01:15:27;;;;;;;3.20;2.15;;;2.90;71.90;;;;;;5028915;28;20422;-70
2023/04/04 01:17:58;;;;;;;3.53;2.40;;;2.90;70.90;;;;;;5027317;28;20436;-70
2023/04/04 01:20:32;;;;;;;3.17;2.15;;;2.90;70.40;;;;;;5028200;28;20435;-70
2023/04/04 01:23:00;;;;;;;3.13;2.20;;;2.90;69.40;;;;;;5037578;28;20441;-70
2023/04/04 01:25:30;;;;;;;3.30;2.30;;;2.90;70.20;;;;;;5051377;28;20814;-70
2023/04/04 01:27:58;;;;;;;2.42;1.85;;;2.80;70.00;;;;;;5028206;28;20425;-70
2023/04/04 01:30:28;;;;;;;3.20;2.30;;;2.80;70.10;;;;;;5028997;28;20449;-70
2023/04/04 01:32:59;;;;;;;2.47;2.08;;;2.80;70.30;;;;;;5019590;28;20428;-70
2023/04/04 01:35:32;;;;;;;2.90;2.20;;;2.80;71.10;;;;;;5019352;28;20434;-70
2023/04/04 01:38:14;;;;;;;2.50;2.03;;;2.80;71.50;;;;;;5034277;28;20431;-70
2023/04/04 01:40:48;;;;;;;3.90;2.10;;;2.90;72.60;;;;;;5022043;28;20438;-70
2023/04/04 01:43:15;;;;;;;3.25;1.90;;;2.80;71.40;;;;;;5027130;28;20834;-70
2023/04/04 01:45:42;;;;;;;3.20;2.00;;;2.70;71.70;;;;;;5019810;28;20797;-70
2023/04/04 01:48:09;;;;;;;2.90;2.10;;;2.70;71.50;;;;;;5046602;28;20417;-70
2023/04/04 01:50:36;;;;;;;3.20;1.80;;;2.60;72.50;;;;;;5039535;28;20465;-69
2023/04/04 01:53:03;;;;;;;3.83;1.80;;;2.60;73.90;;;;;;5032278;28;20450;-70
2023/04/04 01:55:30;;;;;;;2.80;1.80;;;2.60;72.80;;;;;;5035827;28;20432;-70
2023/04/04 01:57:58;;;;;;;3.00;2.30;;;2.50;74.00;;;;;;5015091;28;20416;-69
2023/04/04 02:00:25;;;;;;;2.25;1.83;;;2.60;74.90;;;;;;5026826;28;20442;-70
2023/04/04 02:02:51;;;;;;;3.25;1.98;;;2.60;73.50;;;;;;5030130;28;20514;-72
2023/04/04 02:05:18;;;;;;;2.83;1.70;;;2.50;73.40;;;;;;5018927;28;20794;-71
2023/04/04 02:07:48;;;;;;;4.43;1.98;;;2.50;73.90;;;;;;5033763;28;20427;-71
2023/04/04 02:10:15;;;;;;;3.28;1.80;;;2.50;74.50;;;;;;5031862;28;20487;-72
2023/04/04 02:12:42;;;;;;;3.10;1.90;;;2.50;72.70;;;;;;5026816;28;20457;-71
2023/04/04 02:15:11;;;;;;;3.50;2.10;;;2.50;73.20;;;;;;5028485;28;20438;-71
2023/04/04 02:17:38;;;;;;;2.55;1.70;;;2.50;74.10;;;;;;5027896;28;21031;-70
2023/04/04 02:20:07;;;;;;;3.00;2.08;;;2.40;73.80;;;;;;5030137;28;20435;-70
2023/04/04 02:22:33;;;;;;;2.88;1.83;;;2.40;74.40;;;;;;5027375;28;20480;-71
2023/04/04 02:25:01;;;;;;;2.30;1.90;;;2.40;75.10;;;;;;5028927;28;20415;-69
2023/04/04 02:27:28;;;;;;;2.37;1.97;;;2.30;75.40;;;;;;5041203;28;20433;-70
2023/04/04 02:29:55;;;;;;;3.35;1.98;;;2.30;76.40;;;;;;5012125;28;20432;-70
2023/04/04 02:32:23;;;;;;;2.27;1.70;;;2.20;74.30;;;;;;5034635;28;20428;-70
2023/04/04 02:34:50;;;;;;;2.00;1.80;;;2.20;75.80;;;;;;5027985;28;20424;-70
2023/04/04 02:37:17;;;;;;;3.60;2.20;;;2.20;75.50;;;;;;5027534;28;20833;-70
2023/04/04 02:39:44;;;;;;;3.47;2.58;;;2.20;74.80;;;;;;5025609;28;20468;-70
2023/04/04 02:42:11;;;;;;;3.78;1.90;;;2.20;75.60;;;;;;5027907;28;20632;-69
2023/04/04 02:44:37;;;;;;;4.30;1.90;;;2.10;76.20;;;;;;5024794;28;20442;-70
2023/04/04 02:47:06;;;;;;;4.47;2.50;;;2.10;75.50;;;;;;5015885;28;20925;-70
2023/04/04 02:49:34;;;;;;;2.95;1.90;;;2.10;76.50;;;;;;5026074;28;20433;-70
2023/04/04 02:52:01;;;;;;;2.60;2.13;;;2.10;75.60;;;;;;5041531;28;20434;-70
2023/04/04 02:54:28;;;;;;;2.85;1.90;;;2.10;76.80;;;;;;5028400;28;20782;-70
2023/04/04 02:56:54;;;;;;;1.83;1.60;;;2.10;76.90;;;;;;5020714;28;20854;-70
2023/04/04 02:59:21;;;;;;;2.50;1.70;;;2.00;78.60;;;;;;5037918;28;20433;-70
2023/04/04 03:01:48;;;;;;;2.53;1.90;;;2.00;79.50;;;;;;5026950;28;20430;-70
2023/04/04 03:04:15;;;;;;;2.53;2.10;;;1.90;77.80;;;;;;5027695;28;20423;-69
2023/04/04 03:06:43;;;;;;;3.30;1.80;;;1.90;78.80;;;;;;5015684;28;20419;-69
2023/04/04 03:09:10;;;;;;;2.35;1.90;;;1.80;79.70;;;;;;5028485;28;20786;-70
2023/04/04 03:11:36;;;;;;;2.40;2.00;;;1.80;80.50;;;;;;5035347;28;21005;-70
2023/04/04 03:14:03;;;;;;;3.20;2.20;;;1.80;81.00;;;;;;5018287;28;20449;-70
2023/04/04 03:16:30;;;;;;;3.90;2.08;;;1.70;80.50;;;;;;5020492;28;20438;-70
2023/04/04 03:18:57;;;;;;;3.10;2.17;;;1.70;82.60;;;;;;5040952;28;20441;-70
2023/04/04 03:21:24;;;;;;;2.90;1.98;;;1.70;81.70;;;;;;5039618;28;20488;-71
2023/04/04 03:23:52;;;;;;;3.80;2.40;;;1.70;80.90;;;;;;5027366;28;20987;-71
2023/04/04 03:26:19;;;;;;;4.15;2.20;;;1.70;80.10;;;;;;5018762;28;20792;-71
2023/04/04 03:28:46;;;;;;;2.92;1.90;;;1.70;81.00;;;;;;5023069;28;20427;-71
2023/04/04 03:31:12;;;;;;;3.70;2.20;;;1.70;81.00;;;;;;5024822;28;20438;-71
2023/04/04 03:33:39;;;;;;;3.88;2.00;;;1.70;80.30;;;;;;5023790;28;20450;-71
2023/04/04 03:36:10;;;;;;;2.80;1.80;;;1.60;79.90;;;;;;5018648;28;20854;-71
2023/04/04 03:38:37;;;;;;;4.15;2.35;;;1.60;80.80;;;;;;5025952;28;20427;-71
2023/04/04 03:41:06;;;;;;;3.50;1.90;;;1.70;80.90;;;;;;5029855;28;20427;-71
2023/04/04 03:43:33;;;;;;;2.95;2.30;;;1.70;80.40;;;;;;5027017;28;20427;-71
2023/04/04 03:46:01;;;;;;;3.40;2.40;;;1.70;79.90;;;;;;5026251;28;20434;-71
2023/04/04 03:48:28;;;;;;;3.20;2.10;;;1.70;81.00;;;;;;5028857;28;20429;-72
2023/04/04 03:50:56;;;;;;;2.90;2.00;;;1.60;81.20;;;;;;5025866;28;20897;-69
2023/04/04 03:53:23;;;;;;;3.05;1.90;;;1.70;81.00;;;;;;5028770;28;20485;-71
2023/04/04 03:55:49;;;;;;;4.20;2.00;;;1.70;80.80;;;;;;5028284;28;20429;-69
2023/04/04 03:58:18;;;;;;;3.28;1.90;;;1.60;80.90;;;;;;5027908;28;20450;-70
2023/04/04 04:00:44;;;;;;;3.95;2.78;;;1.60;80.30;;;;;;5025970;28;20770;-69
2023/04/04 04:03:11;;;;;;;2.78;2.25;;;1.60;80.60;;;;;;5031823;28;20410;-69
2023/04/04 04:05:38;;;;;;;2.40;2.10;;;1.60;79.10;;;;;;5048509;28;20421;-69
2023/04/04 04:08:05;;;;;;;3.05;2.03;;;1.50;79.60;;;;;;5029396;28;20422;-69
2023/04/04 04:10:32;;;;;;;3.10;2.08;;;1.50;80.40;;;;;;5026771;28;20434;-69
2023/04/04 04:12:58;;;;;;;2.58;2.00;;;1.50;81.00;;;;;;5026398;28;20414;-69
2023/04/04 04:15:27;;;;;;;3.10;2.22;;;1.50;80.60;;;;;;5017969;28;20434;-70
2023/04/04 04:17:53;;;;;;;2.58;1.80;;;1.50;81.50;;;;;;5020793;28;20422;-70
2023/04/04 04:20:20;;;;;;;3.40;1.85;;;1.50;80.70;;;;;;5026865;28;20869;-70
2023/04/04 04:22:47;;;;;;;3.30;1.85;;;1.40;82.50;;;;;;5029224;28;20415;-70
2023/04/04 04:25:14;;;;;;;3.35;2.00;;;1.50;82.60;;;;;;5026223;28;20806;-72
2023/04/04 04:27:40;;;;;;;3.20;2.00;;;1.40;81.60;;;;;;5027398;28;20468;-70
2023/04/04 04:30:08;;;;;;;3.53;2.03;;;1.40;82.30;;;;;;5030415;28;20435;-71
2023/04/04 04:32:37;;;;;;;3.17;2.17;;;1.40;83.20;;;;;;5032997;28;20883;-72
2023/04/04 04:35:04;;;;;;;3.38;2.10;;;1.40;83.90;;;;;;5051786;28;20421;-72
2023/04/04 04:37:31;;;;;;;3.50;2.20;;;1.30;84.60;;;;;;5028066;28;20443;-72
2023/04/04 04:39:59;;;;;;;3.10;2.40;;;1.30;84.20;;;;;;5022672;28;20524;-72
2023/04/04 04:42:26;;;;;;;3.35;2.42;;;1.20;84.30;;;;;;5027534;28;20445;-72
2023/04/04 04:44:53;;;;;;;4.32;2.20;;;1.20;84.40;;;;;;5031963;28;20423;-72
2023/04/04 04:47:19;;;;;;;3.22;2.30;;;1.20;85.30;;;;;;5027743;28;20430;-72
2023/04/04 04:49:48;;;;;;;3.47;2.20;;;1.20;85.20;;;;;;5027334;28;20431;-72
2023/04/04 04:52:15;;;;;;;3.65;2.28;;;1.20;84.10;;;;;;5027237;28;20434;-73
2023/04/04 04:54:43;;;;;;;4.72;2.10;;;1.20;83.90;;;;;;5035674;28;20434;-72
2023/04/04 04:57:10;;;;;;;3.33;2.43;;;1.20;84.50;;;;;;5029693;28;20515;-72
2023/04/04 04:59:36;;;;;;;4.40;2.47;;;1.20;83.90;;;;;;5026469;28;20924;-72
2023/04/04 05:02:03;;;;;;;3.27;2.03;;;1.20;83.20;;;;;;5024370;28;20430;-72
2023/04/04 05:04:30;;;;;;;2.80;2.30;;;1.20;83.00;;;;;;5024867;28;20419;-72
2023/04/04 05:06:59;;;;;;;2.58;2.05;;;1.20;83.20;;;;;;5030612;28;20419;-72
2023/04/04 05:09:26;;;;;;;4.07;2.70;;;1.20;83.60;;;;;;5020399;28;20420;-72
2023/04/04 05:11:52;;;;;;;3.10;2.05;;;1.20;83.00;;;;;;5024171;28;20785;-71
2023/04/04 05:14:19;;;;;;;4.38;2.70;;;1.20;83.60;;;;;;5031335;28;20956;-72
2023/04/04 05:16:46;;;;;;;3.88;1.80;;;1.30;81.80;;;;;;5023713;28;20432;-72
2023/04/04 05:19:13;;;;;;;3.25;2.28;;;1.30;82.50;;;;;;5026433;28;20463;-72
2023/04/04 05:21:40;;;;;;;4.40;2.20;;;1.30;81.30;;;;;;5021118;28;20937;-71
2023/04/04 05:24:09;;;;;;;2.60;1.90;;;1.20;81.50;;;;;;5027581;28;20446;-71
2023/04/04 05:26:35;;;;;;;3.03;2.17;;;1.20;81.70;;;;;;5029263;28;20435;-72
2023/04/04 05:29:02;;;;;;;3.80;2.20;;;1.20;82.80;;;;;;5029250;28;20887;-71
2023/04/04 05:31:29;;;;;;;3.80;2.40;;;1.20;83.50;;;;;;5023625;28;20445;-71
2023/04/04 05:33:56;;;;;;;4.18;2.60;;;1.30;83.10;;;;;;5028119;28;20435;-71
2023/04/04 05:36:23;;;;;;;4.00;2.20;;;1.30;84.30;;;;;;5024988;28;20437;-71
2023/04/04 05:38:50;;;;;;;2.50;2.00;;;1.30;83.60;;;;;;5029049;28;20913;-71
2023/04/04 05:41:18;;;;;;;4.45;2.58;;;1.30;84.20;;;;;;5021327;28;20431;-71
2023/04/04 05:43:44;;;;;;;3.33;2.30;;;1.30;84.50;;;;;;5020586;28;20808;-71
2023/04/04 05:46:11;;;;;;;4.78;2.60;;;1.30;84.60;;;;;;5023643;28;20440;-71
2023/04/04 05:48:38;;;;;;;4.78;2.60;;;1.30;84.30;;;;;;5032597;28;20429;-71
2023/04/04 05:51:04;;;;;;;3.17;2.40;;;1.30;84.50;;;;;;5032004;28;20418;-71
2023/04/04 05:53:31;;;;;;;3.80;2.42;;;1.30;83.90;;;;;;5054496;22;20419;-67
2023/04/04 05:55:59;;;;;;;2.97;2.40;;;1.40;82.70;;;;;;5079293;28;20424;-69
2023/04/04 05:58:27;;;;;;;3.70;2.72;;;1.40;82.90;;;;;;5088277;28;20521;-70
2023/04/04 06:00:54;;;;;;;4.20;2.50;;;1.40;82.30;;;;;;5085004;28;20449;-70
2023/04/04 06:03:21;;;;;;;3.90;2.45;;;1.50;81.70;;;;;;5084357;28;20435;-70
2023/04/04 06:05:51;;;;;;;4.40;2.30;;;1.50;80.90;;;;;;5074420;28;20434;-69
2023/04/04 06:08:18;;;;;;;3.33;2.40;;;1.60;80.30;;;;;;5081494;28;20429;-69
2023/04/04 06:10:44;;;;;;;2.90;2.00;;;1.60;81.30;;;;;;5075767;28;20548;-69
2023/04/04 06:13:11;;;;;;;4.60;2.40;;;1.70;81.70;;;;;;5084425;28;20555;-69
2023/04/04 06:15:39;;;;;;;3.20;2.47;;;1.70;81.70;;;;;;5079194;28;20581;-70
2023/04/04 06:18:06;;;;;;;5.18;2.45;;;1.80;79.60;;;;;;5084598;28;20929;-69
2023/04/04 06:20:33;;;;;;;3.17;2.07;;;1.90;77.30;;;;;;5087191;28;20437;-69
2023/04/04 06:23:03;;;;;;;6.85;2.17;;;2.00;76.40;;;;;;5086974;28;20498;-69
2023/04/04 06:25:30;;;;;;;3.40;1.90;;;2.10;75.00;;;;;;5085135;28;20530;-69
2023/04/04 06:27:58;;;;;;;4.97;2.15;;;2.10;75.30;;;;;;5084183;28;20441;-69
2023/04/04 06:30:25;;;;;;;2.80;2.40;;;2.20;74.20;;;;;;5081622;28;20434;-69
2023/04/04 06:32:53;;;;;;;2.50;2.30;;;2.30;74.40;;;;;;5082694;28;20897;-69
2023/04/04 06:35:20;;;;;;;3.67;2.13;;;2.30;73.70;;;;;;5085460;28;20418;-69
2023/04/04 06:37:47;;;;;;;4.00;2.08;;;2.40;72.90;;;;;;5086638;28;20414;-69
2023/04/04 06:40:14;;;;;;;4.00;2.50;;;2.40;73.10;;;;;;5077510;28;20494;-69
2023/04/04 06:42:49;;;;;;;3.17;2.30;;;2.50;72.10;;;;;;5085502;28;20891;-69
2023/04/04 06:45:16;;;;;;;3.70;2.22;;;2.50;71.20;;;;;;5085391;28;20541;-69
2023/04/04 06:47:43;;;;;;;5.10;2.20;;;2.60;72.30;;;;;;5087894;28;20515;-69
2023/04/04 06:50:12;;;;;;;3.77;1.90;;;2.70;70.80;;;;;;5086548;28;20756;-69
2023/04/04 06:52:38;;;;;;;3.70;2.30;;;2.80;70.50;;;;;;5085535;28;20463;-69
2023/04/04 06:55:07;;;;;;;3.80;2.20;;;2.90;70.80;;;;;;5085052;28;20442;-69
2023/04/04 06:57:34;;;;;;;3.80;2.35;;;3.00;68.20;;;;;;5082657;28;20582;-70
2023/04/04 07:00:01;;;;;;;3.28;2.35;;;3.20;67.90;;;;;;5084423;28;20430;-69
2023/04/04 07:02:28;;;;;;;2.90;2.10;;;3.30;66.70;;;;;;5084287;28;20815;-69
2023/04/04 07:04:54;;;;;;;3.50;1.80;;;3.40;65.70;;;;;;5085224;28;20414;-69
2023/04/04 07:07:23;;;;;;;3.28;2.08;;;3.50;65.00;;;;;;5084660;28;20886;-69
2023/04/04 07:09:50;;;;;;;3.63;2.17;;;3.60;64.30;;;;;;5085828;28;20597;-69
2023/04/04 07:12:17;;;;;;;22.52;20.20;;;3.60;64.20;;;;;;5080392;28;20453;-69
2023/04/04 07:14:43;;;;;;;5.22;4.15;;;3.70;63.60;;;;;;5084234;28;20441;-69
2023/04/04 07:17:10;;;;;;;3.22;2.00;;;3.70;63.10;;;;;;5080513;28;20524;-69
2023/04/04 07:19:37;;;;;;;2.65;1.95;;;3.70;62.70;;;;;;5082284;28;20437;-69
2023/04/04 07:22:04;;;;;;;3.03;2.00;;;3.80;62.50;;;;;;5083718;28;20760;-68
2023/04/04 07:24:32;;;;;;;2.92;2.03;;;3.90;61.30;;;;;;5083981;28;20414;-68
2023/04/04 07:26:58;;;;;;;3.03;2.00;;;4.00;61.30;;;;;;5071876;28;20427;-68
2023/04/04 07:29:25;;;;;;;2.97;2.30;;;4.20;61.40;;;;;;5080434;28;20449;-69
2023/04/04 07:31:52;;;;;;;3.20;2.00;;;4.40;59.50;;;;;;5077887;28;20426;-68
2023/04/04 07:34:19;;;;;;;3.30;2.00;;;4.50;59.40;;;;;;5068760;28;20417;-70
2023/04/04 07:36:46;;;;;;;4.93;2.40;;;4.70;58.90;;;;;;5084252;28;20490;-70
2023/04/04 07:39:13;;;;;;;4.83;2.27;;;4.90;58.30;;;;;;5071616;28;20551;-70
2023/04/04 07:41:41;;;;;;;2.90;1.77;;;5.10;56.30;;;;;;5083653;28;20839;-70
2023/04/04 07:44:08;;;;;;;3.20;1.90;;;5.30;56.40;;;;;;5081124;28;20433;-69
2023/04/04 07:46:35;;;;;;;2.22;2.03;;;5.50;54.70;;;;;;5076393;28;20522;-70
2023/04/04 07:49:02;;;;;;;3.42;2.08;;;5.70;54.70;;;;;;5083834;28;20414;-70
2023/04/04 07:51:29;;;;;;;3.30;2.70;;;5.90;53.00;;;;;;5083020;28;20563;-70
2023/04/04 07:53:56;;;;;;;3.13;2.20;;;6.00;52.70;;;;;;5082595;28;20509;-70
2023/04/04 07:56:23;;;;;;;3.75;2.40;;;6.20;51.60;;;;;;5082570;28;20433;-70
2023/04/04 07:58:51;;;;;;;2.50;1.70;;;6.30;51.70;;;;;;5082334;28;20946;-70
2023/04/04 08:01:18;;;;;;;2.40;1.80;;;6.50;49.20;;;;;;5081093;28;20451;-70
2023/04/04 08:03:45;;;;;;;2.88;2.33;;;6.70;49.40;;;;;;5082353;28;20888;-70
2023/04/04 08:06:13;;;;;;;2.55;2.28;;;6.80;48.60;;;;;;5083893;28;20789;-70
2023/04/04 08:08:40;;;;;;;3.50;2.20;;;6.80;47.70;;;;;;5082162;28;20896;-70
2023/04/04 08:11:06;;;;;;;3.42;2.00;;;7.00;47.50;;;;;;5082901;28;20425;-70
2023/04/04 08:13:33;;;;;;;2.40;2.20;;;7.10;46.90;;;;;;5082620;28;20536;-70
2023/04/04 08:16:01;;;;;;;3.47;2.37;;;7.20;46.60;;;;;;5077247;28;20438;-70
2023/04/04 08:18:28;;;;;;;3.40;2.00;;;7.30;46.40;;;;;;5078725;28;20509;-70
2023/04/04 08:20:55;;;;;;;2.45;2.25;;;7.40;44.70;;;;;;5083396;28;20426;-70
2023/04/04 08:23:21;;;;;;;2.67;2.30;;;7.50;43.40;;;;;;5083733;28;20402;-70
2023/04/04 08:25:48;;;;;;;2.90;2.30;;;7.60;42.90;;;;;;5083616;28;20429;-70
2023/04/04 08:28:15;;;;;;;3.00;2.70;;;7.80;42.00;;;;;;5082693;28;20799;-70
2023/04/04 08:30:42;;;;;;;3.90;2.65;;;8.00;42.00;;;;;;5078590;28;20451;-70
2023/04/04 08:33:10;;;;;;;2.90;2.38;;;8.00;41.30;;;;;;5081042;28;20452;-70
2023/04/04 08:35:36;;;;;;;2.53;2.20;;;8.10;41.70;;;;;;5082878;28;20891;-70
2023/04/04 08:38:05;;;;;;;3.80;3.08;;;7.90;41.10;;;;;;5082468;28;20507;-70
2023/04/04 08:40:32;;;;;;;3.60;2.50;;;7.80;41.20;;;;;;5083819;28;20544;-70
2023/04/04 08:42:59;;;;;;;4.60;2.50;;;7.60;41.70;;;;;;5082544;28;20414;-70
2023/04/04 08:45:29;;;;;;;3.80;3.00;;;7.70;42.20;;;;;;5073198;28;20515;-70
2023/04/04 08:47:59;;;;;;;2.80;2.50;;;8.00;42.40;;;;;;5083781;28;20509;-69
2023/04/04 08:50:28;;;;;;;3.22;2.60;;;8.20;41.20;;;;;;5082155;28;20470;-70
2023/04/04 08:52:58;;;;;;;2.97;2.55;;;8.40;41.20;;;;;;5078960;28;20427;-70
2023/04/04 08:55:25;;;;;;;5.30;3.30;;;8.60;40.60;;;;;;5069907;28;20570;-71
2023/04/04 08:57:52;;;;;;;3.00;2.70;;;8.70;39.90;;;;;;5079078;28;20443;-70
2023/04/04 09:00:20;;;;;;;2.60;2.40;;;8.80;39.90;;;;;;5082146;28;20434;-70
2023/04/04 09:02:52;;;;;;;2.60;2.40;;;8.90;40.00;;;;;;5080817;28;20544;-70
2023/04/04 09:05:19;;;;;;;2.40;2.20;;;9.10;39.60;;;;;;5084065;28;20420;-70
2023/04/04 09:07:48;;;;;;;2.60;2.40;;;9.30;39.50;;;;;;5084293;28;20505;-70
2023/04/04 09:10:14;;;;;;;3.42;2.60;;;9.50;38.40;;;;;;5084585;28;20414;-70
2023/04/04 09:12:46;;;;;;;3.78;2.97;;;9.70;38.50;;;;;;5083357;28;20447;-70
2023/04/04 09:15:13;;;;;;;4.00;2.80;;;9.80;37.80;;;;;;5081251;28;20426;-70
2023/04/04 09:17:40;;;;;;;2.92;2.50;;;9.80;37.90;;;;;;5086040;28;20424;-71
2023/04/04 09:20:39;;;;;;;3.40;3.10;;;9.90;38.40;;;;;;5087348;28;20422;-70
2023/04/04 09:23:09;;;;;;;3.72;2.90;;;10.00;37.50;;;;;;5074382;28;20882;-70
2023/04/04 09:25:36;;;;;;;3.72;3.30;;;10.20;37.50;;;;;;5087791;28;20881;-70
2023/04/04 09:28:04;;;;;;;3.20;2.47;;;10.40;38.00;;;;;;5083642;28;20953;-70
2023/04/04 09:30:32;;;;;;;2.40;2.20;;;10.40;36.70;;;;;;5085548;28;20520;-70
2023/04/04 09:33:01;;;;;;;2.80;2.38;;;10.30;36.50;;;;;;5086374;28;20876;-70
2023/04/04 09:35:28;;;;;;;3.50;2.60;;;10.30;37.10;;;;;;5086932;28;20491;-69
2023/04/04 09:37:56;;;;;;;3.90;2.92;;;10.50;37.20;;;;;;5086729;28;20418;-69
2023/04/04 09:40:27;;;;;;;2.90;2.40;;;10.70;37.20;;;;;;5087678;28;20430;-71
2023/04/04 09:42:55;;;;;;;3.13;2.50;;;10.90;37.10;;;;;;5084590;28;20461;-71
2023/04/04 09:45:25;;;;;;;3.15;2.80;;;11.10;36.60;;;;;;5086036;28;20988;-71
2023/04/04 09:47:51;;;;;;;3.25;2.70;;;11.30;35.60;;;;;;5087172;28;20497;-70
2023/04/04 09:50:22;;;;;;;3.60;2.38;;;11.30;36.00;;;;;;5081966;28;20442;-70
2023/04/04 09:52:49;;;;;;;3.38;2.72;;;11.40;35.60;;;;;;5074538;28;20442;-71
2023/04/04 09:55:17;;;;;;;2.95;2.45;;;11.50;35.40;;;;;;5086931;28;20421;-70
2023/04/04 09:57:47;;;;;;;3.75;2.70;;;11.60;35.40;;;;;;5084328;28;20521;-69
2023/04/04 10:00:20;;;;;;;3.30;2.50;;;11.70;35.40;;;;;;5082309;28;20461;-70
2023/04/04 10:02:48;;;;;;;2.70;2.50;;;11.90;34.90;;;;;;5086055;28;20937;-70
2023/04/04 10:05:16;;;;;;;2.80;2.60;;;11.80;34.70;;;;;;5086236;28;20418;-70
2023/04/04 10:07:46;;;;;;;2.80;2.60;;;11.90;34.30;;;;;;5087225;28;20852;-70
2023/04/04 10:10:15;;;;;;;3.38;2.90;;;12.00;34.50;;;;;;5087202;28;20494;-70
2023/04/04 10:12:47;;;;;;;4.35;3.10;;;12.10;34.20;;;;;;5077660;28;20422;-71
2023/04/04 10:15:16;;;;;;;3.53;2.70;;;12.20;34.00;;;;;;5081264;28;20463;-71
2023/04/04 10:17:44;;;;;;;3.00;2.72;;;12.30;33.80;;;;;;5086588;28;20433;-69
2023/04/04 10:20:11;;;;;;;3.03;2.70;;;12.30;34.00;;;;;;5086811;28;20472;-70
2023/04/04 10:22:39;;;;;;;3.28;2.97;;;12.40;33.10;;;;;;5085113;28;20773;-70
2023/04/04 10:25:08;;;;;;;2.90;2.70;;;12.40;32.80;;;;;;5085840;28;20434;-70
2023/04/04 10:27:36;;;;;;;3.40;2.90;;;12.60;32.50;;;;;;5085270;28;20493;-70
2023/04/04 10:30:06;;;;;;;3.13;2.83;;;12.70;33.60;;;;;;5085629;28;20425;-70
2023/04/04 10:32:41;;;;;;;3.10;2.80;;;12.80;31.80;;;;;;5084379;28;20414;-70
2023/04/04 10:35:10;;;;;;;3.85;3.55;;;12.70;32.90;;;;;;5077338;28;21164;-69
2023/04/04 10:37:41;;;;;;;4.15;3.10;;;12.80;33.40;;;;;;5081964;28;20417;-69
2023/04/04 10:40:10;;;;;;;3.17;2.88;;;12.90;32.70;;;;;;5082915;28;20542;-70
2023/04/04 10:42:39;;;;;;;3.67;2.80;;;13.10;32.20;;;;;;5084038;28;20914;-70
2023/04/04 10:45:10;;;;;;;3.28;2.97;;;13.00;32.30;;;;;;5082591;28;20579;-70
2023/04/04 10:47:37;;;;;;;3.20;2.90;;;13.00;32.80;;;;;;5086104;28;20406;-70
2023/04/04 10:50:07;;;;;;;2.92;2.70;;;13.10;33.30;;;;;;5085008;28;20772;-70
2023/04/04 10:52:36;;;;;;;3.40;3.05;;;13.20;32.40;;;;;;5084659;28;20422;-70
2023/04/04 10:55:05;;;;;;;3.20;2.90;;;13.40;31.90;;;;;;5083969;28;20795;-70
2023/04/04 10:57:33;;;;;;;4.40;3.00;;;13.50;32.20;;;;;;5085437;28;20911;-69
2023/04/04 11:00:03;;;;;;;3.40;2.90;;;13.60;31.30;;;;;;5086121;28;20417;-69
2023/04/04 11:02:50;;;;;;;3.10;2.80;;;13.70;31.80;;;;;;5083380;28;20425;-69
2023/04/04 11:05:21;;;;;;;4.50;3.30;;;13.70;30.30;;;;;;5072667;28;20409;-70
2023/04/04 11:07:54;;;;;;;3.13;2.90;;;13.70;31.50;;;;;;5084695;28;20796;-69
2023/04/04 11:10:24;;;;;;;3.97;2.78;;;13.80;30.80;;;;;;5083539;28;20435;-70
2023/04/04 11:12:54;;;;;;;3.00;2.60;;;13.90;30.60;;;;;;5084435;28;20417;-69
2023/04/04 11:15:22;;;;;;;3.35;3.05;;;13.90;30.60;;;;;;5084964;28;20420;-69
2023/04/04 11:17:56;;;;;;;3.22;2.92;;;14.00;30.90;;;;;;5085707;28;20536;-69
2023/04/04 11:20:24;;;;;;;3.30;3.00;;;14.10;30.60;;;;;;5085561;28;20501;-70
2023/04/04 11:23:02;;;;;;;3.50;3.10;;;14.10;30.90;;;;;;5084989;28;20481;-70
2023/04/04 11:25:31;;;;;;;3.00;2.80;;;14.10;30.10;;;;;;5084793;28;20467;-68
2023/04/04 11:27:58;;;;;;;3.20;2.90;;;14.30;30.40;;;;;;5085691;28;20920;-68
2023/04/04 11:30:27;;;;;;;3.00;2.70;;;14.40;29.50;;;;;;5080645;28;20923;-68
2023/04/04 11:32:58;;;;;;;3.53;2.70;;;14.60;29.10;;;;;;5090222;28;20481;-68
2023/04/04 11:35:25;;;;;;;8.70;6.43;;;14.70;29.70;;;;;;5089817;28;20414;-70
2023/04/04 11:38:01;;;;;;;3.97;3.08;;;14.80;29.20;;;;;;5090832;28;20924;-70
2023/04/04 11:40:38;;;;;;;3.10;2.80;;;14.80;29.40;;;;;;5083734;28;20545;-68
2023/04/04 11:43:08;;;;;;;3.20;2.45;;;15.00;29.30;;;;;;5073555;28;20437;-68
2023/04/04 11:45:36;;;;;;;4.35;2.70;;;15.00;29.10;;;;;;5081072;28;20497;-68
2023/04/04 11:48:06;;;;;;;2.75;2.55;;;15.10;29.40;;;;;;5087771;28;20907;-68
2023/04/04 11:50:39;;;;;;;2.78;2.58;;;15.10;28.40;;;;;;5087452;28;20409;-68
2023/04/04 11:53:07;;;;;;;2.97;2.50;;;15.20;28.00;;;;;;5086399;28;20406;-68
2023/04/04 11:55:38;;;;;;;2.88;2.58;;;15.50;27.90;;;;;;5084445;22;20473;-72
2023/04/04 11:58:12;;;;;;;3.00;2.60;;;15.60;27.80;;;;;;5052311;28;20418;-72
2023/04/04 12:00:40;;;;;;;3.30;2.90;;;15.70;26.80;;;;;;5056979;28;20425;-72
2023/04/04 12:03:10;;;;;;;2.60;2.40;;;15.90;27.00;;;;;;5056235;28;20437;-72
2023/04/04 12:05:37;;;;;;;3.20;2.60;;;16.00;27.20;;;;;;5048118;28;20504;-72
2023/04/04 12:08:06;;;;;;;3.03;2.72;;;16.10;27.00;;;;;;5044881;28;20433;-73
2023/04/04 12:10:35;;;;;;;2.75;2.50;;;16.10;27.50;;;;;;5042670;28;20424;-72
2023/04/04 12:13:03;;;;;;;2.75;2.50;;;16.20;27.40;;;;;;5047128;28;20442;-71
2023/04/04 12:15:32;;;;;;;2.50;2.30;;;16.20;27.70;;;;;;5047103;28;20436;-71
2023/04/04 12:17:59;;;;;;;3.05;2.80;;;16.20;27.80;;;;;;5057822;28;20455;-72
2023/04/04 12:20:27;;;;;;;2.63;2.33;;;16.30;27.40;;;;;;5047092;28;20429;-71
2023/04/04 12:22:53;;;;;;;2.63;2.30;;;16.50;27.00;;;;;;5043950;28;20433;-71
2023/04/04 12:25:22;;;;;;;4.10;2.40;;;16.60;25.60;;;;;;5046774;28;20421;-71
2023/04/04 12:27:50;;;;;;;2.60;2.30;;;16.40;26.10;;;;;;5049631;28;20544;-71
2023/04/04 12:30:18;;;;;;;2.38;2.17;;;16.50;26.20;;;;;;5047570;28;20514;-71
2023/04/04 12:32:46;;;;;;;2.60;2.40;;;16.60;25.80;;;;;;5047005;28;20435;-70
2023/04/04 12:35:14;;;;;;;2.60;2.40;;;16.80;25.80;;;;;;5047031;28;20436;-70
2023/04/04 12:38:09;;;;;;;2.50;2.30;;;17.10;26.10;;;;;;5047240;28;20744;-70
2023/04/04 12:40:38;;;;;;;2.80;2.60;;;17.40;25.70;;;;;;5042339;28;20528;-72
2023/04/04 12:43:06;;;;;;;3.58;2.80;;;17.70;25.40;;;;;;5046337;28;20429;-72
2023/04/04 12:45:37;;;;;;;2.30;2.10;;;17.70;25.40;;;;;;5047428;28;20464;-72
2023/04/04 12:48:10;;;;;;;3.47;2.30;;;17.70;25.50;;;;;;5046706;28;20887;-72
2023/04/04 12:50:49;;;;;;;2.55;2.30;;;17.60;25.70;;;;;;5053581;28;20430;-70
2023/04/04 12:53:20;;;;;;;3.40;2.40;;;17.60;25.40;;;;;;5041280;28;20434;-72
2023/04/04 12:55:47;;;;;;;2.83;2.50;;;17.50;24.60;;;;;;5050174;28;20452;-72
2023/04/04 12:58:16;;;;;;;2.70;2.10;;;17.40;24.80;;;;;;5050605;28;20412;-71
2023/04/04 13:00:43;;;;;;;2.80;2.22;;;17.30;24.80;;;;;;5049106;28;20854;-71